sensor_id;sensor_type;location;lat;lon;timestamp;P1;durP1;ratioP1;P2;durP2;ratioP2
2622;SDS011;1321;48.690;9.022;2022-07-23T00:01:02;3.97;;;3.67;;
2622;SDS011;1321;48.690;9.022;2022-07-23T00:03:30;3.93;;;3.13;;
2622;SDS011;1321;48.690;9.022;2022-07-23T00:05:58;3.40;;;3.20;;
2622;SDS011;1321;48.690;9.022;2022-07-23T00:08:27;3.40;;;2.90;;
2622;SDS011;1321;48.690;9.022;2022-07-23T00:10:55;3.57;;;3.37;;
2622;SDS011;1321;48.690;9.022;2022-07-23T00:13:25;3.00;;;2.80;;
2622;SDS011;1321;48.690;9.022;2022-07-23T00:15:54;3.90;;;3.60;;
2622;SDS011;1321;48.690;9.022;2022-07-23T00:18:22;2.90;;;2.70;;
2622;SDS011;1321;48.690;9.022;2022-07-23T00:20:51;3.40;;;3.10;;
2622;SDS011;1321;48.690;9.022;2022-07-23T00:23:19;3.50;;;3.30;;
2622;SDS011;1321;48.690;9.022;2022-07-23T00:25:48;3.50;;;2.90;;
2622;SDS011;1321;48.690;9.022;2022-07-23T00:28:16;3.13;;;2.90;;
2622;SDS011;1321;48.690;9.022;2022-07-23T00:30:46;3.03;;;2.73;;
2622;SDS011;1321;48.690;9.022;2022-07-23T00:33:14;3.50;;;3.20;;
2622;SDS011;1321;48.690;9.022;2022-07-23T00:35:42;2.90;;;2.70;;
2622;SDS011;1321;48.690;9.022;2022-07-23T00:38:10;2.97;;;2.70;;
2622;SDS011;1321;48.690;9.022;2022-07-23T00:40:38;3.30;;;2.83;;
2622;SDS011;1321;48.690;9.022;2022-07-23T00:43:07;3.40;;;3.20;;
2622;SDS011;1321;48.690;9.022;2022-07-23T00:45:35;2.60;;;2.40;;
2622;SDS011;1321;48.690;9.022;2022-07-23T00:48:05;3.00;;;2.80;;
2622;SDS011;1321;48.690;9.022;2022-07-23T00:50:33;3.83;;;3.40;;
2622;SDS011;1321;48.690;9.022;2022-07-23T00:53:01;3.10;;;2.90;;
2622;SDS011;1321;48.690;9.022;2022-07-23T00:55:29;2.97;;;2.77;;
2622;SDS011;1321;48.690;9.022;2022-07-23T00:57:58;2.60;;;2.40;;
2622;SDS011;1321;48.690;9.022;2022-07-23T01:00:26;3.07;;;2.87;;
2622;SDS011;1321;48.690;9.022;2022-07-23T01:02:55;2.40;;;2.20;;
2622;SDS011;1321;48.690;9.022;2022-07-23T01:05:25;2.77;;;2.57;;
2622;SDS011;1321;48.690;9.022;2022-07-23T01:07:53;4.00;;;3.17;;
2622;SDS011;1321;48.690;9.022;2022-07-23T01:10:22;2.87;;;2.67;;
2622;SDS011;1321;48.690;9.022;2022-07-23T01:13:01;3.30;;;3.10;;
2622;SDS011;1321;48.690;9.022;2022-07-23T01:15:30;3.47;;;3.00;;
2622;SDS011;1321;48.690;9.022;2022-07-23T01:17:59;2.97;;;2.77;;
2622;SDS011;1321;48.690;9.022;2022-07-23T01:20:29;3.10;;;2.80;;
2622;SDS011;1321;48.690;9.022;2022-07-23T01:22:59;2.97;;;2.77;;
2622;SDS011;1321;48.690;9.022;2022-07-23T01:25:28;3.00;;;2.80;;
2622;SDS011;1321;48.690;9.022;2022-07-23T01:27:56;2.87;;;2.67;;
2622;SDS011;1321;48.690;9.022;2022-07-23T01:30:24;2.57;;;2.37;;
2622;SDS011;1321;48.690;9.022;2022-07-23T01:32:52;3.37;;;2.90;;
2622;SDS011;1321;48.690;9.022;2022-07-23T01:35:20;2.80;;;2.60;;
2622;SDS011;1321;48.690;9.022;2022-07-23T01:37:48;3.17;;;2.87;;
2622;SDS011;1321;48.690;9.022;2022-07-23T01:40:18;3.40;;;3.00;;
2622;SDS011;1321;48.690;9.022;2022-07-23T01:42:48;3.03;;;2.83;;
2622;SDS011;1321;48.690;9.022;2022-07-23T01:45:16;3.40;;;2.80;;
2622;SDS011;1321;48.690;9.022;2022-07-23T01:47:44;3.27;;;2.97;;
2622;SDS011;1321;48.690;9.022;2022-07-23T01:50:13;2.50;;;2.30;;
2622;SDS011;1321;48.690;9.022;2022-07-23T01:52:41;3.10;;;2.90;;
2622;SDS011;1321;48.690;9.022;2022-07-23T01:55:09;3.30;;;2.67;;
2622;SDS011;1321;48.690;9.022;2022-07-23T01:57:46;3.00;;;2.70;;
2622;SDS011;1321;48.690;9.022;2022-07-23T02:00:14;3.33;;;3.03;;
2622;SDS011;1321;48.690;9.022;2022-07-23T02:02:42;2.50;;;2.30;;
2622;SDS011;1321;48.690;9.022;2022-07-23T02:05:10;3.50;;;3.17;;
2622;SDS011;1321;48.690;9.022;2022-07-23T02:07:39;3.50;;;3.23;;
2622;SDS011;1321;48.690;9.022;2022-07-23T02:10:07;2.70;;;2.50;;
2622;SDS011;1321;48.690;9.022;2022-07-23T02:12:36;3.17;;;2.87;;
2622;SDS011;1321;48.690;9.022;2022-07-23T02:15:06;3.00;;;2.80;;
2622;SDS011;1321;48.690;9.022;2022-07-23T02:17:35;2.90;;;2.70;;
2622;SDS011;1321;48.690;9.022;2022-07-23T02:20:05;2.80;;;2.60;;
2622;SDS011;1321;48.690;9.022;2022-07-23T02:22:34;7.27;;;2.67;;
2622;SDS011;1321;48.690;9.022;2022-07-23T02:25:03;3.20;;;3.00;;
2622;SDS011;1321;48.690;9.022;2022-07-23T02:27:32;3.33;;;3.03;;
2622;SDS011;1321;48.690;9.022;2022-07-23T02:30:00;3.60;;;3.20;;
2622;SDS011;1321;48.690;9.022;2022-07-23T02:32:30;3.00;;;2.80;;
2622;SDS011;1321;48.690;9.022;2022-07-23T02:34:58;3.33;;;3.03;;
2622;SDS011;1321;48.690;9.022;2022-07-23T02:37:26;4.50;;;3.67;;
2622;SDS011;1321;48.690;9.022;2022-07-23T02:39:54;3.03;;;2.83;;
2622;SDS011;1321;48.690;9.022;2022-07-23T02:42:22;3.30;;;3.00;;
2622;SDS011;1321;48.690;9.022;2022-07-23T02:44:51;3.60;;;3.37;;
2622;SDS011;1321;48.690;9.022;2022-07-23T02:47:19;3.20;;;3.00;;
2622;SDS011;1321;48.690;9.022;2022-07-23T02:49:48;3.07;;;2.77;;
2622;SDS011;1321;48.690;9.022;2022-07-23T02:52:17;3.50;;;3.20;;
2622;SDS011;1321;48.690;9.022;2022-07-23T02:54:45;3.83;;;3.30;;
2622;SDS011;1321;48.690;9.022;2022-07-23T02:57:14;3.23;;;2.97;;
2622;SDS011;1321;48.690;9.022;2022-07-23T02:59:42;2.57;;;2.37;;
2622;SDS011;1321;48.690;9.022;2022-07-23T03:02:10;2.83;;;2.63;;
2622;SDS011;1321;48.690;9.022;2022-07-23T03:04:38;4.20;;;3.37;;
2622;SDS011;1321;48.690;9.022;2022-07-23T03:07:10;3.90;;;3.53;;
2622;SDS011;1321;48.690;9.022;2022-07-23T03:09:38;3.30;;;3.00;;
2622;SDS011;1321;48.690;9.022;2022-07-23T03:12:06;3.10;;;2.90;;
2622;SDS011;1321;48.690;9.022;2022-07-23T03:14:39;3.33;;;3.00;;
2622;SDS011;1321;48.690;9.022;2022-07-23T03:17:08;3.83;;;3.50;;
2622;SDS011;1321;48.690;9.022;2022-07-23T03:19:36;3.60;;;3.30;;
2622;SDS011;1321;48.690;9.022;2022-07-23T03:22:05;3.93;;;3.10;;
2622;SDS011;1321;48.690;9.022;2022-07-23T03:24:35;4.30;;;3.13;;
2622;SDS011;1321;48.690;9.022;2022-07-23T03:27:21;3.37;;;3.17;;
2622;SDS011;1321;48.690;9.022;2022-07-23T03:29:50;3.20;;;2.90;;
2622;SDS011;1321;48.690;9.022;2022-07-23T03:32:19;3.50;;;3.27;;
2622;SDS011;1321;48.690;9.022;2022-07-23T03:34:48;3.00;;;2.80;;
2622;SDS011;1321;48.690;9.022;2022-07-23T03:37:17;3.90;;;3.00;;
2622;SDS011;1321;48.690;9.022;2022-07-23T03:39:48;3.53;;;3.33;;
2622;SDS011;1321;48.690;9.022;2022-07-23T03:42:16;3.50;;;3.20;;
2622;SDS011;1321;48.690;9.022;2022-07-23T03:44:44;3.10;;;2.90;;
2622;SDS011;1321;48.690;9.022;2022-07-23T03:47:12;4.60;;;3.00;;
2622;SDS011;1321;48.690;9.022;2022-07-23T03:49:41;3.77;;;3.47;;
2622;SDS011;1321;48.690;9.022;2022-07-23T03:52:10;3.97;;;3.53;;
2622;SDS011;1321;48.690;9.022;2022-07-23T03:54:38;3.37;;;3.07;;
2622;SDS011;1321;48.690;9.022;2022-07-23T03:57:07;4.20;;;3.30;;
2622;SDS011;1321;48.690;9.022;2022-07-23T03:59:35;4.10;;;3.80;;
2622;SDS011;1321;48.690;9.022;2022-07-23T04:02:03;3.90;;;3.20;;
2622;SDS011;1321;48.690;9.022;2022-07-23T04:04:32;3.33;;;3.13;;
2622;SDS011;1321;48.690;9.022;2022-07-23T04:07:00;3.97;;;3.67;;
2622;SDS011;1321;48.690;9.022;2022-07-23T04:09:29;3.70;;;3.40;;
2622;SDS011;1321;48.690;9.022;2022-07-23T04:11:57;3.60;;;3.30;;
2622;SDS011;1321;48.690;9.022;2022-07-23T04:14:26;4.90;;;4.13;;
2622;SDS011;1321;48.690;9.022;2022-07-23T04:16:54;4.97;;;4.03;;
2622;SDS011;1321;48.690;9.022;2022-07-23T04:19:22;4.00;;;3.70;;
2622;SDS011;1321;48.690;9.022;2022-07-23T04:21:51;3.70;;;3.20;;
2622;SDS011;1321;48.690;9.022;2022-07-23T04:24:19;3.23;;;3.03;;
2622;SDS011;1321;48.690;9.022;2022-07-23T04:26:47;3.80;;;3.43;;
2622;SDS011;1321;48.690;9.022;2022-07-23T04:29:15;3.77;;;3.47;;
2622;SDS011;1321;48.690;9.022;2022-07-23T04:31:45;3.27;;;2.97;;
2622;SDS011;1321;48.690;9.022;2022-07-23T04:34:13;3.97;;;3.47;;
2622;SDS011;1321;48.690;9.022;2022-07-23T04:36:41;3.43;;;3.13;;
2622;SDS011;1321;48.690;9.022;2022-07-23T04:39:09;3.57;;;3.27;;
2622;SDS011;1321;48.690;9.022;2022-07-23T04:41:38;3.17;;;2.87;;
2622;SDS011;1321;48.690;9.022;2022-07-23T04:44:06;3.80;;;3.40;;
2622;SDS011;1321;48.690;9.022;2022-07-23T04:46:36;3.90;;;3.60;;
2622;SDS011;1321;48.690;9.022;2022-07-23T04:49:06;3.77;;;3.43;;
2622;SDS011;1321;48.690;9.022;2022-07-23T04:51:34;3.60;;;3.40;;
2622;SDS011;1321;48.690;9.022;2022-07-23T04:54:02;4.00;;;3.70;;
2622;SDS011;1321;48.690;9.022;2022-07-23T04:56:30;3.60;;;3.40;;
2622;SDS011;1321;48.690;9.022;2022-07-23T04:58:58;4.27;;;3.97;;
2622;SDS011;1321;48.690;9.022;2022-07-23T05:01:27;3.90;;;3.70;;
2622;SDS011;1321;48.690;9.022;2022-07-23T05:03:55;3.93;;;3.53;;
2622;SDS011;1321;48.690;9.022;2022-07-23T05:06:25;4.80;;;4.23;;
2622;SDS011;1321;48.690;9.022;2022-07-23T05:08:53;4.03;;;3.73;;
2622;SDS011;1321;48.690;9.022;2022-07-23T05:11:21;4.40;;;4.10;;
2622;SDS011;1321;48.690;9.022;2022-07-23T05:13:52;3.87;;;3.60;;
2622;SDS011;1321;48.690;9.022;2022-07-23T05:16:21;3.57;;;3.37;;
2622;SDS011;1321;48.690;9.022;2022-07-23T05:18:49;4.33;;;3.80;;
2622;SDS011;1321;48.690;9.022;2022-07-23T05:21:17;4.47;;;4.00;;
2622;SDS011;1321;48.690;9.022;2022-07-23T05:23:46;3.87;;;3.60;;
2622;SDS011;1321;48.690;9.022;2022-07-23T05:26:15;3.57;;;3.37;;
2622;SDS011;1321;48.690;9.022;2022-07-23T05:28:43;6.20;;;4.30;;
2622;SDS011;1321;48.690;9.022;2022-07-23T05:31:15;4.10;;;3.80;;
2622;SDS011;1321;48.690;9.022;2022-07-23T05:33:43;3.70;;;3.40;;
2622;SDS011;1321;48.690;9.022;2022-07-23T05:36:12;3.53;;;3.23;;
2622;SDS011;1321;48.690;9.022;2022-07-23T05:38:40;7.23;;;4.13;;
2622;SDS011;1321;48.690;9.022;2022-07-23T05:41:09;4.50;;;4.10;;
2622;SDS011;1321;48.690;9.022;2022-07-23T05:43:37;3.63;;;3.43;;
2622;SDS011;1321;48.690;9.022;2022-07-23T05:46:05;5.27;;;4.40;;
2622;SDS011;1321;48.690;9.022;2022-07-23T05:48:34;3.37;;;3.07;;
2622;SDS011;1321;48.690;9.022;2022-07-23T05:51:02;4.30;;;4.00;;
2622;SDS011;1321;48.690;9.022;2022-07-23T05:53:33;5.93;;;4.00;;
2622;SDS011;1321;48.690;9.022;2022-07-23T05:56:01;4.90;;;4.50;;
2622;SDS011;1321;48.690;9.022;2022-07-23T05:58:31;5.33;;;4.83;;
2622;SDS011;1321;48.690;9.022;2022-07-23T06:00:59;4.33;;;4.03;;
2622;SDS011;1321;48.690;9.022;2022-07-23T06:03:27;5.20;;;3.90;;
2622;SDS011;1321;48.690;9.022;2022-07-23T06:05:55;4.70;;;4.13;;
2622;SDS011;1321;48.690;9.022;2022-07-23T06:08:23;5.10;;;4.70;;
2622;SDS011;1321;48.690;9.022;2022-07-23T06:10:52;5.73;;;5.23;;
2622;SDS011;1321;48.690;9.022;2022-07-23T06:13:20;4.53;;;4.23;;
2622;SDS011;1321;48.690;9.022;2022-07-23T06:15:49;4.57;;;4.17;;
2622;SDS011;1321;48.690;9.022;2022-07-23T06:18:18;10.30;;;5.23;;
2622;SDS011;1321;48.690;9.022;2022-07-23T06:20:46;5.87;;;5.17;;
2622;SDS011;1321;48.690;9.022;2022-07-23T06:23:17;5.67;;;5.07;;
2622;SDS011;1321;48.690;9.022;2022-07-23T06:25:45;6.40;;;4.97;;
2622;SDS011;1321;48.690;9.022;2022-07-23T06:28:13;5.43;;;5.03;;
2622;SDS011;1321;48.690;9.022;2022-07-23T06:30:41;6.40;;;5.83;;
2622;SDS011;1321;48.690;9.022;2022-07-23T06:33:11;5.00;;;4.53;;
2622;SDS011;1321;48.690;9.022;2022-07-23T06:35:39;4.70;;;4.40;;
2622;SDS011;1321;48.690;9.022;2022-07-23T06:38:09;5.33;;;4.93;;
2622;SDS011;1321;48.690;9.022;2022-07-23T06:40:37;5.33;;;4.40;;
2622;SDS011;1321;48.690;9.022;2022-07-23T06:43:05;4.60;;;4.20;;
2622;SDS011;1321;48.690;9.022;2022-07-23T06:45:33;5.43;;;5.00;;
2622;SDS011;1321;48.690;9.022;2022-07-23T06:48:01;5.80;;;5.17;;
2622;SDS011;1321;48.690;9.022;2022-07-23T06:50:31;5.20;;;4.80;;
2622;SDS011;1321;48.690;9.022;2022-07-23T06:52:59;4.83;;;4.43;;
2622;SDS011;1321;48.690;9.022;2022-07-23T06:55:28;5.57;;;5.17;;
2622;SDS011;1321;48.690;9.022;2022-07-23T06:57:56;6.17;;;5.57;;
2622;SDS011;1321;48.690;9.022;2022-07-23T07:00:24;6.00;;;5.07;;
2622;SDS011;1321;48.690;9.022;2022-07-23T07:02:53;4.50;;;4.07;;
2622;SDS011;1321;48.690;9.022;2022-07-23T07:05:22;4.50;;;4.10;;
2622;SDS011;1321;48.690;9.022;2022-07-23T07:07:53;5.17;;;4.73;;
2622;SDS011;1321;48.690;9.022;2022-07-23T07:10:21;4.67;;;4.27;;
2622;SDS011;1321;48.690;9.022;2022-07-23T07:12:50;5.40;;;4.23;;
2622;SDS011;1321;48.690;9.022;2022-07-23T07:15:18;4.60;;;4.30;;
2622;SDS011;1321;48.690;9.022;2022-07-23T07:17:46;4.50;;;4.10;;
2622;SDS011;1321;48.690;9.022;2022-07-23T07:20:14;5.30;;;4.60;;
2622;SDS011;1321;48.690;9.022;2022-07-23T07:22:42;4.90;;;4.50;;
2622;SDS011;1321;48.690;9.022;2022-07-23T07:25:12;5.00;;;4.43;;
2622;SDS011;1321;48.690;9.022;2022-07-23T07:27:40;4.73;;;4.33;;
2622;SDS011;1321;48.690;9.022;2022-07-23T07:30:10;5.80;;;4.50;;
2622;SDS011;1321;48.690;9.022;2022-07-23T07:32:39;4.20;;;3.90;;
2622;SDS011;1321;48.690;9.022;2022-07-23T07:35:23;5.53;;;4.30;;
2622;SDS011;1321;48.690;9.022;2022-07-23T07:37:52;4.40;;;4.00;;
2622;SDS011;1321;48.690;9.022;2022-07-23T07:40:21;4.67;;;4.27;;
2622;SDS011;1321;48.690;9.022;2022-07-23T07:42:55;4.63;;;4.23;;
2622;SDS011;1321;48.690;9.022;2022-07-23T07:45:24;4.83;;;4.30;;
2622;SDS011;1321;48.690;9.022;2022-07-23T07:47:53;3.97;;;3.67;;
2622;SDS011;1321;48.690;9.022;2022-07-23T07:50:21;3.60;;;3.40;;
2622;SDS011;1321;48.690;9.022;2022-07-23T07:52:49;4.30;;;3.97;;
2622;SDS011;1321;48.690;9.022;2022-07-23T07:55:17;4.33;;;3.70;;
2622;SDS011;1321;48.690;9.022;2022-07-23T07:57:47;4.17;;;3.90;;
2622;SDS011;1321;48.690;9.022;2022-07-23T08:00:16;4.10;;;3.70;;
2622;SDS011;1321;48.690;9.022;2022-07-23T08:02:46;4.67;;;4.27;;
2622;SDS011;1321;48.690;9.022;2022-07-23T08:05:18;4.90;;;4.50;;
2622;SDS011;1321;48.690;9.022;2022-07-23T08:07:53;4.97;;;4.47;;
2622;SDS011;1321;48.690;9.022;2022-07-23T08:10:22;3.40;;;3.20;;
2622;SDS011;1321;48.690;9.022;2022-07-23T08:12:53;4.13;;;3.83;;
2622;SDS011;1321;48.690;9.022;2022-07-23T08:15:23;4.70;;;4.30;;
2622;SDS011;1321;48.690;9.022;2022-07-23T08:17:52;4.90;;;4.50;;
2622;SDS011;1321;48.690;9.022;2022-07-23T08:20:21;4.57;;;4.27;;
2622;SDS011;1321;48.690;9.022;2022-07-23T08:22:52;3.63;;;3.40;;
2622;SDS011;1321;48.690;9.022;2022-07-23T08:25:21;3.90;;;3.63;;
2622;SDS011;1321;48.690;9.022;2022-07-23T08:27:50;3.77;;;3.47;;
2622;SDS011;1321;48.690;9.022;2022-07-23T08:30:20;3.70;;;3.40;;
2622;SDS011;1321;48.690;9.022;2022-07-23T08:32:50;4.27;;;3.97;;
2622;SDS011;1321;48.690;9.022;2022-07-23T08:35:23;3.90;;;3.60;;
2622;SDS011;1321;48.690;9.022;2022-07-23T08:37:53;3.70;;;3.50;;
2622;SDS011;1321;48.690;9.022;2022-07-23T08:40:22;4.20;;;3.90;;
2622;SDS011;1321;48.690;9.022;2022-07-23T08:42:54;4.20;;;3.90;;
2622;SDS011;1321;48.690;9.022;2022-07-23T08:45:23;3.50;;;3.27;;
2622;SDS011;1321;48.690;9.022;2022-07-23T08:47:53;4.10;;;3.70;;
2622;SDS011;1321;48.690;9.022;2022-07-23T08:50:22;5.00;;;4.60;;
2622;SDS011;1321;48.690;9.022;2022-07-23T08:52:52;4.20;;;3.90;;
2622;SDS011;1321;48.690;9.022;2022-07-23T08:55:23;3.90;;;3.60;;
2622;SDS011;1321;48.690;9.022;2022-07-23T08:57:51;3.83;;;3.63;;
2622;SDS011;1321;48.690;9.022;2022-07-23T09:00:21;5.70;;;4.37;;
2622;SDS011;1321;48.690;9.022;2022-07-23T09:02:50;3.50;;;3.30;;
2622;SDS011;1321;48.690;9.022;2022-07-23T09:05:18;5.30;;;4.60;;
2622;SDS011;1321;48.690;9.022;2022-07-23T09:08:10;4.10;;;3.80;;
2622;SDS011;1321;48.690;9.022;2022-07-23T09:10:44;4.27;;;3.97;;
2622;SDS011;1321;48.690;9.022;2022-07-23T09:16:07;4.03;;;3.73;;
2622;SDS011;1321;48.690;9.022;2022-07-23T09:18:38;4.07;;;3.77;;
2622;SDS011;1321;48.690;9.022;2022-07-23T09:21:08;3.57;;;3.37;;
2622;SDS011;1321;48.690;9.022;2022-07-23T09:23:41;4.50;;;4.20;;
2622;SDS011;1321;48.690;9.022;2022-07-23T09:26:24;4.30;;;4.00;;
2622;SDS011;1321;48.690;9.022;2022-07-23T09:29:03;4.90;;;4.50;;
2622;SDS011;1321;48.690;9.022;2022-07-23T09:31:34;3.83;;;3.50;;
2622;SDS011;1321;48.690;9.022;2022-07-23T09:34:12;4.90;;;4.50;;
2622;SDS011;1321;48.690;9.022;2022-07-23T09:36:42;5.43;;;4.93;;
2622;SDS011;1321;48.690;9.022;2022-07-23T09:39:12;5.17;;;4.77;;
2622;SDS011;1321;48.690;9.022;2022-07-23T09:41:42;4.80;;;4.40;;
2622;SDS011;1321;48.690;9.022;2022-07-23T09:44:13;4.47;;;4.13;;
2622;SDS011;1321;48.690;9.022;2022-07-23T09:46:44;4.13;;;3.83;;
2622;SDS011;1321;48.690;9.022;2022-07-23T09:49:14;4.40;;;4.00;;
2622;SDS011;1321;48.690;9.022;2022-07-23T09:51:44;5.53;;;5.03;;
2622;SDS011;1321;48.690;9.022;2022-07-23T09:54:20;4.80;;;4.40;;
2622;SDS011;1321;48.690;9.022;2022-07-23T09:56:54;5.60;;;5.07;;
2622;SDS011;1321;48.690;9.022;2022-07-23T09:59:25;4.70;;;4.40;;
2622;SDS011;1321;48.690;9.022;2022-07-23T10:01:55;5.00;;;4.70;;
2622;SDS011;1321;48.690;9.022;2022-07-23T10:04:26;4.23;;;4.03;;
2622;SDS011;1321;48.690;9.022;2022-07-23T10:06:56;4.30;;;3.90;;
2622;SDS011;1321;48.690;9.022;2022-07-23T10:09:26;5.50;;;5.10;;
2622;SDS011;1321;48.690;9.022;2022-07-23T10:11:57;4.67;;;4.27;;
2622;SDS011;1321;48.690;9.022;2022-07-23T10:14:35;5.07;;;4.67;;
2622;SDS011;1321;48.690;9.022;2022-07-23T10:17:04;9.50;;;4.77;;
2622;SDS011;1321;48.690;9.022;2022-07-23T10:19:33;4.60;;;4.30;;
2622;SDS011;1321;48.690;9.022;2022-07-23T10:22:01;4.50;;;4.20;;
2622;SDS011;1321;48.690;9.022;2022-07-23T10:24:44;5.23;;;4.83;;
2622;SDS011;1321;48.690;9.022;2022-07-23T10:30:22;6.07;;;4.50;;
2622;SDS011;1321;48.690;9.022;2022-07-23T10:33:02;4.60;;;4.27;;
2622;SDS011;1321;48.690;9.022;2022-07-23T10:35:41;4.70;;;4.03;;
2622;SDS011;1321;48.690;9.022;2022-07-23T10:38:21;4.53;;;4.23;;
2622;SDS011;1321;48.690;9.022;2022-07-23T10:40:56;4.87;;;4.47;;
2622;SDS011;1321;48.690;9.022;2022-07-23T10:43:25;3.67;;;3.40;;
2622;SDS011;1321;48.690;9.022;2022-07-23T10:45:56;4.27;;;3.97;;
2622;SDS011;1321;48.690;9.022;2022-07-23T10:54:50;4.77;;;4.47;;
2622;SDS011;1321;48.690;9.022;2022-07-23T10:57:21;4.50;;;4.10;;
2622;SDS011;1321;48.690;9.022;2022-07-23T11:02:54;4.30;;;3.90;;
2622;SDS011;1321;48.690;9.022;2022-07-23T11:05:25;4.57;;;4.17;;
2622;SDS011;1321;48.690;9.022;2022-07-23T11:10:53;4.20;;;3.90;;
2622;SDS011;1321;48.690;9.022;2022-07-23T11:13:27;4.07;;;3.77;;
2622;SDS011;1321;48.690;9.022;2022-07-23T11:16:04;4.23;;;3.73;;
2622;SDS011;1321;48.690;9.022;2022-07-23T11:18:55;4.43;;;4.03;;
2622;SDS011;1321;48.690;9.022;2022-07-23T11:24:23;4.37;;;4.07;;
2622;SDS011;1321;48.690;9.022;2022-07-23T11:26:59;4.40;;;4.00;;
2622;SDS011;1321;48.690;9.022;2022-07-23T11:32:29;3.77;;;3.47;;
2622;SDS011;1321;48.690;9.022;2022-07-23T11:35:01;3.93;;;3.10;;
2622;SDS011;1321;48.690;9.022;2022-07-23T11:37:34;4.00;;;3.70;;
2622;SDS011;1321;48.690;9.022;2022-07-23T11:40:08;4.67;;;4.27;;
2622;SDS011;1321;48.690;9.022;2022-07-23T11:42:38;4.87;;;4.50;;
2622;SDS011;1321;48.690;9.022;2022-07-23T11:45:07;4.10;;;3.80;;
2622;SDS011;1321;48.690;9.022;2022-07-23T11:47:36;4.03;;;3.73;;
2622;SDS011;1321;48.690;9.022;2022-07-23T11:50:06;3.77;;;3.57;;
2622;SDS011;1321;48.690;9.022;2022-07-23T11:52:35;5.27;;;4.80;;
2622;SDS011;1321;48.690;9.022;2022-07-23T11:55:04;4.50;;;4.10;;
2622;SDS011;1321;48.690;9.022;2022-07-23T11:57:34;4.20;;;3.90;;
2622;SDS011;1321;48.690;9.022;2022-07-23T12:00:05;5.23;;;4.53;;
2622;SDS011;1321;48.690;9.022;2022-07-23T12:02:37;3.87;;;3.67;;
2622;SDS011;1321;48.690;9.022;2022-07-23T12:05:08;4.47;;;4.17;;
2622;SDS011;1321;48.690;9.022;2022-07-23T12:07:39;4.87;;;4.47;;
2622;SDS011;1321;48.690;9.022;2022-07-23T12:10:10;5.17;;;4.70;;
2622;SDS011;1321;48.690;9.022;2022-07-23T12:12:43;3.87;;;3.60;;
2622;SDS011;1321;48.690;9.022;2022-07-23T12:15:13;4.27;;;3.97;;
2622;SDS011;1321;48.690;9.022;2022-07-23T12:17:43;4.93;;;4.53;;
2622;SDS011;1321;48.690;9.022;2022-07-23T12:20:19;4.60;;;4.20;;
2622;SDS011;1321;48.690;9.022;2022-07-23T12:22:50;5.20;;;4.80;;
2622;SDS011;1321;48.690;9.022;2022-07-23T12:25:20;4.47;;;4.13;;
2622;SDS011;1321;48.690;9.022;2022-07-23T12:27:58;4.00;;;3.70;;
2622;SDS011;1321;48.690;9.022;2022-07-23T12:30:28;4.60;;;4.30;;
2622;SDS011;1321;48.690;9.022;2022-07-23T12:33:00;4.20;;;3.90;;
2622;SDS011;1321;48.690;9.022;2022-07-23T12:35:32;4.43;;;4.07;;
2622;SDS011;1321;48.690;9.022;2022-07-23T12:38:04;4.43;;;4.13;;
2622;SDS011;1321;48.690;9.022;2022-07-23T12:40:35;3.90;;;3.60;;
2622;SDS011;1321;48.690;9.022;2022-07-23T12:43:09;4.20;;;3.90;;
2622;SDS011;1321;48.690;9.022;2022-07-23T12:45:42;4.83;;;4.53;;
2622;SDS011;1321;48.690;9.022;2022-07-23T12:48:17;3.70;;;3.43;;
2622;SDS011;1321;48.690;9.022;2022-07-23T12:50:52;5.03;;;4.67;;
2622;SDS011;1321;48.690;9.022;2022-07-23T12:53:26;6.47;;;6.00;;
2622;SDS011;1321;48.690;9.022;2022-07-23T12:55:58;6.77;;;5.00;;
2622;SDS011;1321;48.690;9.022;2022-07-23T12:58:41;5.27;;;4.87;;
2622;SDS011;1321;48.690;9.022;2022-07-23T13:01:22;4.30;;;4.00;;
2622;SDS011;1321;48.690;9.022;2022-07-23T13:03:57;4.87;;;4.47;;
2622;SDS011;1321;48.690;9.022;2022-07-23T13:06:29;4.40;;;4.00;;
2622;SDS011;1321;48.690;9.022;2022-07-23T13:08:58;5.80;;;5.30;;
2622;SDS011;1321;48.690;9.022;2022-07-23T13:11:28;4.43;;;4.13;;
2622;SDS011;1321;48.690;9.022;2022-07-23T13:13:57;4.43;;;4.07;;
2622;SDS011;1321;48.690;9.022;2022-07-23T13:16:27;4.80;;;4.37;;
2622;SDS011;1321;48.690;9.022;2022-07-23T13:18:56;4.37;;;4.07;;
2622;SDS011;1321;48.690;9.022;2022-07-23T13:21:25;5.27;;;4.77;;
2622;SDS011;1321;48.690;9.022;2022-07-23T13:23:55;4.70;;;4.30;;
2622;SDS011;1321;48.690;9.022;2022-07-23T13:26:24;4.97;;;4.57;;
2622;SDS011;1321;48.690;9.022;2022-07-23T13:28:53;4.40;;;4.10;;
2622;SDS011;1321;48.690;9.022;2022-07-23T13:31:21;4.40;;;4.10;;
2622;SDS011;1321;48.690;9.022;2022-07-23T13:33:50;4.93;;;4.63;;
2622;SDS011;1321;48.690;9.022;2022-07-23T13:36:18;4.47;;;4.17;;
2622;SDS011;1321;48.690;9.022;2022-07-23T13:38:46;3.80;;;3.60;;
2622;SDS011;1321;48.690;9.022;2022-07-23T13:41:17;4.40;;;4.03;;
2622;SDS011;1321;48.690;9.022;2022-07-23T13:43:45;5.60;;;5.10;;
2622;SDS011;1321;48.690;9.022;2022-07-23T13:46:14;5.90;;;5.30;;
2622;SDS011;1321;48.690;9.022;2022-07-23T13:48:42;4.53;;;4.23;;
2622;SDS011;1321;48.690;9.022;2022-07-23T13:51:10;4.20;;;3.90;;
2622;SDS011;1321;48.690;9.022;2022-07-23T13:53:39;4.70;;;4.30;;
2622;SDS011;1321;48.690;9.022;2022-07-23T13:56:07;4.00;;;3.40;;
2622;SDS011;1321;48.690;9.022;2022-07-23T13:58:37;4.80;;;4.40;;
2622;SDS011;1321;48.690;9.022;2022-07-23T14:01:07;4.13;;;3.83;;
2622;SDS011;1321;48.690;9.022;2022-07-23T14:03:35;5.53;;;4.47;;
2622;SDS011;1321;48.690;9.022;2022-07-23T14:06:03;5.47;;;5.00;;
2622;SDS011;1321;48.690;9.022;2022-07-23T14:08:41;4.67;;;4.37;;
2622;SDS011;1321;48.690;9.022;2022-07-23T14:11:10;4.53;;;4.23;;
2622;SDS011;1321;48.690;9.022;2022-07-23T14:13:40;7.03;;;5.10;;
2622;SDS011;1321;48.690;9.022;2022-07-23T14:16:09;4.13;;;3.83;;
2622;SDS011;1321;48.690;9.022;2022-07-23T14:18:37;5.60;;;5.10;;
2622;SDS011;1321;48.690;9.022;2022-07-23T14:21:06;4.80;;;4.40;;
2622;SDS011;1321;48.690;9.022;2022-07-23T14:23:34;4.77;;;4.37;;
2622;SDS011;1321;48.690;9.022;2022-07-23T14:26:04;5.20;;;4.80;;
2622;SDS011;1321;48.690;9.022;2022-07-23T14:28:33;4.97;;;4.60;;
2622;SDS011;1321;48.690;9.022;2022-07-23T14:31:03;5.47;;;4.97;;
2622;SDS011;1321;48.690;9.022;2022-07-23T14:33:40;5.17;;;4.77;;
2622;SDS011;1321;48.690;9.022;2022-07-23T14:36:08;5.00;;;4.60;;
2622;SDS011;1321;48.690;9.022;2022-07-23T14:38:41;4.80;;;4.43;;
2622;SDS011;1321;48.690;9.022;2022-07-23T14:41:09;4.93;;;4.53;;
2622;SDS011;1321;48.690;9.022;2022-07-23T14:43:37;5.73;;;5.23;;
2622;SDS011;1321;48.690;9.022;2022-07-23T14:46:07;5.30;;;4.93;;
2622;SDS011;1321;48.690;9.022;2022-07-23T14:48:35;4.50;;;4.10;;
2622;SDS011;1321;48.690;9.022;2022-07-23T14:51:05;4.60;;;4.27;;
2622;SDS011;1321;48.690;9.022;2022-07-23T14:53:34;5.90;;;5.30;;
2622;SDS011;1321;48.690;9.022;2022-07-23T14:56:02;4.63;;;4.30;;
2622;SDS011;1321;48.690;9.022;2022-07-23T14:58:31;5.70;;;5.20;;
2622;SDS011;1321;48.690;9.022;2022-07-23T15:01:03;5.37;;;4.97;;
2622;SDS011;1321;48.690;9.022;2022-07-23T15:03:32;4.57;;;4.27;;
2622;SDS011;1321;48.690;9.022;2022-07-23T15:06:08;5.00;;;4.60;;
2622;SDS011;1321;48.690;9.022;2022-07-23T15:08:38;4.53;;;4.20;;
2622;SDS011;1321;48.690;9.022;2022-07-23T15:11:06;6.53;;;6.07;;
2622;SDS011;1321;48.690;9.022;2022-07-23T15:13:36;4.40;;;4.10;;
2622;SDS011;1321;48.690;9.022;2022-07-23T15:16:05;5.07;;;4.60;;
2622;SDS011;1321;48.690;9.022;2022-07-23T15:18:37;5.27;;;4.83;;
2622;SDS011;1321;48.690;9.022;2022-07-23T15:21:05;5.83;;;5.43;;
2622;SDS011;1321;48.690;9.022;2022-07-23T15:23:34;5.80;;;5.30;;
2622;SDS011;1321;48.690;9.022;2022-07-23T15:26:06;5.13;;;4.73;;
2622;SDS011;1321;48.690;9.022;2022-07-23T15:28:35;4.90;;;4.60;;
2622;SDS011;1321;48.690;9.022;2022-07-23T15:31:03;4.37;;;3.97;;
2622;SDS011;1321;48.690;9.022;2022-07-23T15:33:34;4.73;;;4.33;;
2622;SDS011;1321;48.690;9.022;2022-07-23T15:36:05;4.87;;;4.43;;
2622;SDS011;1321;48.690;9.022;2022-07-23T15:38:33;5.27;;;4.87;;
2622;SDS011;1321;48.690;9.022;2022-07-23T15:41:02;4.93;;;4.63;;
2622;SDS011;1321;48.690;9.022;2022-07-23T15:43:30;4.70;;;4.30;;
2622;SDS011;1321;48.690;9.022;2022-07-23T15:45:58;4.90;;;4.60;;
2622;SDS011;1321;48.690;9.022;2022-07-23T15:48:26;6.00;;;5.53;;
2622;SDS011;1321;48.690;9.022;2022-07-23T15:50:55;5.40;;;5.00;;
2622;SDS011;1321;48.690;9.022;2022-07-23T15:53:26;4.83;;;4.43;;
2622;SDS011;1321;48.690;9.022;2022-07-23T15:56:03;5.20;;;4.80;;